createdAt,value
2018-06-20T00:00:01.519Z,25
2018-06-20T00:00:51.887Z,25.1
2018-06-20T00:01:41.949Z,25.1
2018-06-20T00:02:32.025Z,25
2018-06-20T00:03:22.064Z,25
2018-06-20T00:04:11.280Z,25.1
2018-06-20T00:05:01.686Z,25.1
2018-06-20T00:05:51.988Z,25
2018-06-20T00:06:42.353Z,25
2018-06-20T00:07:32.148Z,25
2018-06-20T00:08:21.896Z,25
2018-06-20T00:09:12.251Z,25
2018-06-20T00:10:02.298Z,25
2018-06-20T00:10:52.653Z,25
2018-06-20T00:11:42.712Z,25
2018-06-20T00:12:32.502Z,25
2018-06-20T00:13:22.838Z,25
2018-06-20T00:14:12.358Z,25
2018-06-20T00:15:02.766Z,25
2018-06-20T00:15:53.023Z,25
2018-06-20T00:16:42.833Z,25
2018-06-20T00:17:32.928Z,25
2018-06-20T00:18:22.943Z,24.9
2018-06-20T00:19:12.724Z,25
2018-06-20T00:20:02.807Z,25
2018-06-20T00:20:53.409Z,25
2018-06-20T00:21:42.985Z,25
2018-06-20T00:22:33.249Z,24.9
2018-06-20T00:23:23.340Z,24.9
2018-06-20T00:24:13.392Z,24.9
2018-06-20T00:25:03.530Z,25
2018-06-20T00:25:53.530Z,25
2018-06-20T00:26:43.846Z,25
2018-06-20T00:27:33.649Z,25
2018-06-20T00:28:22.876Z,25
2018-06-20T00:29:14.094Z,24.9
2018-06-20T00:30:04.121Z,24.9
2018-06-20T00:30:53.919Z,24.9
2018-06-20T00:31:43.967Z,24.9
2018-06-20T00:32:32.984Z,24.9
2018-06-20T00:33:24.371Z,24.9
2018-06-20T00:34:14.171Z,24.9
2018-06-20T00:35:04.244Z,24.9
2018-06-20T00:35:54.313Z,24.9
2018-06-20T00:36:44.636Z,24.9
2018-06-20T00:37:34.725Z,24.9
2018-06-20T00:38:24.471Z,24.9
2018-06-20T00:39:14.852Z,24.9
2018-06-20T00:40:04.661Z,24.9
2018-06-20T00:40:54.632Z,24.9
2018-06-20T00:41:44.990Z,24.9
2018-06-20T00:42:34.787Z,24.9
2018-06-20T00:43:25.132Z,24.9
2018-06-20T00:44:14.949Z,24.9
2018-06-20T00:45:05.291Z,24.9
2018-06-20T00:45:55.049Z,24.9
2018-06-20T00:46:45.101Z,24.9
2018-06-20T00:47:35.458Z,24.9
2018-06-20T00:48:25.261Z,24.9
2018-06-20T00:49:15.288Z,24.9
2018-06-20T00:50:05.446Z,24.9
2018-06-20T00:50:55.713Z,24.9
2018-06-20T00:51:45.557Z,24.9
2018-06-20T00:52:35.881Z,24.9
2018-06-20T00:53:25.611Z,24.9
2018-06-20T00:54:15.398Z,24.9
2018-06-20T00:55:05.471Z,24.9
2018-06-20T00:55:56.088Z,24.9
2018-06-20T00:56:45.872Z,24.9
2018-06-20T00:57:35.662Z,24.9
2018-06-20T00:58:25.980Z,24.9
2018-06-20T00:59:16.049Z,24.9
2018-06-20T01:00:06.128Z,24.9
2018-06-20T01:00:56.195Z,24.9
2018-06-20T01:01:46.310Z,24.9
2018-06-20T01:02:36.319Z,24.9
2018-06-20T01:03:26.675Z,24.9
2018-06-20T01:04:16.725Z,24.9
2018-06-20T01:05:06.500Z,24.9
2018-06-20T01:05:56.841Z,24.9
2018-06-20T01:06:46.923Z,24.9
2018-06-20T01:07:37.051Z,24.9
2018-06-20T01:08:26.744Z,24.9
2018-06-20T01:09:17.107Z,24.9
2018-06-20T01:10:06.875Z,24.9
2018-06-20T01:10:56.965Z,24.9
2018-06-20T01:11:48.637Z,24.9
2018-06-20T01:12:37.061Z,24.9
2018-06-20T01:13:27.156Z,24.9
2018-06-20T01:14:17.489Z,24.9
2018-06-20T01:15:06.996Z,24.8
2018-06-20T01:15:57.591Z,24.9
2018-06-20T01:16:47.143Z,24.8
2018-06-20T01:17:37.713Z,24.9
2018-06-20T01:18:42.447Z,24.9
2018-06-20T01:19:17.861Z,24.8
2018-06-20T01:20:07.372Z,24.9
2018-06-20T01:20:57.965Z,24.8
2018-06-20T01:21:48.054Z,24.9
2018-06-20T01:22:38.148Z,24.8
2018-06-20T01:23:28.160Z,24.8
2018-06-20T01:24:18.237Z,24.8
2018-06-20T01:25:08.318Z,24.8
2018-06-20T01:25:58.371Z,24.8
2018-06-20T01:26:48.453Z,24.8
2018-06-20T01:27:37.668Z,24.8
2018-06-20T01:28:28.008Z,24.8
2018-06-20T01:29:18.061Z,24.8
2018-06-20T01:30:08.701Z,24.8
2018-06-20T01:30:58.208Z,24.8
2018-06-20T01:31:48.838Z,24.8
2018-06-20T01:32:38.896Z,24.8
2018-06-20T01:33:28.673Z,24.8
2018-06-20T01:34:19.057Z,24.8
2018-06-20T01:35:08.816Z,24.8
2018-06-20T01:35:59.133Z,24.8
2018-06-20T01:36:49.247Z,24.8
2018-06-20T01:37:38.713Z,24.8
2018-06-20T01:38:29.056Z,24.8
2018-06-20T01:39:19.375Z,24.8
2018-06-20T01:40:09.175Z,24.8
2018-06-20T01:40:59.535Z,24.8
2018-06-20T01:41:49.600Z,24.8
2018-06-20T01:42:39.711Z,24.8
2018-06-20T01:43:29.438Z,24.8
2018-06-20T01:44:19.778Z,24.8
2018-06-20T01:45:09.826Z,24.8
2018-06-20T01:45:59.928Z,24.8
2018-06-20T01:46:49.709Z,24.8
2018-06-20T01:47:39.738Z,24.8
2018-06-20T01:48:29.877Z,24.8
2018-06-20T01:49:20.177Z,24.8
2018-06-20T01:50:09.959Z,24.8
2018-06-20T01:51:00.019Z,24.8
2018-06-20T01:51:50.063Z,24.8
2018-06-20T01:52:39.893Z,24.8
2018-06-20T01:53:30.196Z,24.8
2018-06-20T01:54:20.245Z,24.8
2018-06-20T01:55:09.768Z,24.8
2018-06-20T01:56:00.772Z,24.8
2018-06-20T01:56:50.475Z,24.8
2018-06-20T01:57:40.236Z,24.8
2018-06-20T01:58:30.845Z,24.8
2018-06-20T01:59:19.511Z,24.8
2018-06-20T02:00:10.424Z,24.8
2018-06-20T02:01:01.049Z,24.8
2018-06-20T02:01:51.094Z,24.8
2018-06-20T02:02:40.634Z,24.8
2018-06-20T02:03:31.254Z,24.8
2018-06-20T02:04:20.760Z,24.8
2018-06-20T02:05:10.795Z,24.8
2018-06-20T02:06:00.902Z,24.8
2018-06-20T02:06:51.518Z,24.8
2018-06-20T02:07:41.566Z,24.8
2018-06-20T02:08:31.640Z,24.8
2018-06-20T02:09:21.433Z,24.8
2018-06-20T02:10:11.833Z,24.8
2018-06-20T02:11:01.810Z,24.8
2018-06-20T02:11:51.636Z,24.8
2018-06-20T02:12:41.678Z,24.8
2018-06-20T02:13:31.708Z,24.8
2018-06-20T02:14:21.485Z,24.8
2018-06-20T02:15:11.844Z,24.7
2018-06-20T02:16:02.179Z,24.7
2018-06-20T02:16:51.968Z,24.8
2018-06-20T02:17:42.322Z,24.8
2018-06-20T02:18:32.398Z,24.8
2018-06-20T02:19:22.490Z,24.8
2018-06-20T02:20:12.529Z,24.7
2018-06-20T02:21:02.578Z,24.7
2018-06-20T02:21:52.401Z,24.7
2018-06-20T02:22:42.447Z,24.7
2018-06-20T02:23:32.772Z,24.7
2018-06-20T02:24:22.286Z,24.7
2018-06-20T02:25:12.881Z,24.7
2018-06-20T02:26:02.396Z,24.8
2018-06-20T02:26:53.016Z,24.7
2018-06-20T02:27:43.091Z,24.7
2018-06-20T02:28:33.128Z,24.7
2018-06-20T02:29:23.190Z,24.7
2018-06-20T02:30:12.730Z,24.7
2018-06-20T02:31:03.109Z,24.7
2018-06-20T02:31:53.127Z,24.7
2018-06-20T02:32:43.188Z,24.7
2018-06-20T02:33:33.258Z,24.7
2018-06-20T02:34:23.030Z,24.7
2018-06-20T02:35:13.130Z,24.7
2018-06-20T02:36:03.440Z,24.7
2018-06-20T02:36:53.516Z,24.7
2018-06-20T02:37:43.293Z,24.7
2018-06-20T02:38:33.902Z,24.7
2018-06-20T02:39:23.767Z,24.7
2018-06-20T02:40:13.775Z,24.7
2018-06-20T02:41:03.839Z,24.7
2018-06-20T02:41:53.928Z,24.7
2018-06-20T02:42:43.978Z,24.7
2018-06-20T02:43:33.744Z,24.7
2018-06-20T02:44:23.798Z,24.7
2018-06-20T02:45:14.465Z,24.7
2018-06-20T02:46:04.508Z,24.7
2018-06-20T02:46:54.598Z,24.7
2018-06-20T02:47:44.684Z,24.7
2018-06-20T02:48:34.408Z,24.7
2018-06-20T02:49:24.727Z,24.7
2018-06-20T02:50:14.528Z,24.6
2018-06-20T02:51:04.884Z,24.6
2018-06-20T02:51:54.927Z,24.6
2018-06-20T02:52:45.517Z,24.7
2018-06-20T02:53:35.085Z,24.6
2018-06-20T02:54:25.092Z,24.6
2018-06-20T02:55:15.216Z,24.6
2018-06-20T02:56:04.973Z,24.6
2018-06-20T02:56:55.008Z,24.6
2018-06-20T02:57:44.821Z,24.6
2018-06-20T02:58:34.849Z,24.6
2018-06-20T02:59:25.216Z,24.6
2018-06-20T03:00:15.299Z,24.6
2018-06-20T03:01:05.686Z,24.6
2018-06-20T03:01:55.680Z,24.6
2018-06-20T03:02:45.733Z,24.6
2018-06-20T03:03:35.819Z,24.6
2018-06-20T03:04:25.310Z,24.6
2018-06-20T03:05:15.401Z,24.6
2018-06-20T03:06:05.760Z,24.6
2018-06-20T03:06:56.079Z,24.6
2018-06-20T03:07:46.139Z,24.6
2018-06-20T03:08:35.648Z,24.6
2018-06-20T03:09:25.761Z,24.6
2018-06-20T03:10:16.323Z,24.6
2018-06-20T03:11:06.396Z,24.6
2018-06-20T03:11:55.605Z,24.6
2018-06-20T03:12:46.561Z,24.6
2018-06-20T03:13:36.563Z,24.6
2018-06-20T03:14:26.343Z,24.6
2018-06-20T03:15:16.713Z,24.6
2018-06-20T03:16:06.231Z,24.6
2018-06-20T03:16:56.282Z,24.6
2018-06-20T03:17:46.624Z,24.6
2018-06-20T03:18:36.400Z,24.6
2018-06-20T03:19:26.747Z,24.6
2018-06-20T03:20:17.055Z,24.6
2018-06-20T03:21:07.187Z,24.6
2018-06-20T03:21:56.948Z,24.6
2018-06-20T03:22:47.265Z,24.6
2018-06-20T03:23:37.069Z,24.6
2018-06-20T03:24:27.432Z,24.6
2018-06-20T03:25:17.310Z,24.6
2018-06-20T03:26:07.523Z,24.6
2018-06-20T03:26:57.568Z,24.6
2018-06-20T03:27:46.523Z,24.6
2018-06-20T03:28:37.720Z,24.6
2018-06-20T03:29:27.822Z,24.6
2018-06-20T03:30:16.732Z,24.6
2018-06-20T03:31:07.941Z,24.6
2018-06-20T03:31:57.415Z,24.6
2018-06-20T03:32:47.487Z,24.6
2018-06-20T03:33:38.077Z,24.6
2018-06-20T03:34:27.897Z,24.6
2018-06-20T03:35:18.022Z,24.6
2018-06-20T03:36:08.262Z,24.6
2018-06-20T03:36:58.098Z,24.6
2018-06-20T03:37:48.133Z,24.6
2018-06-20T03:38:38.494Z,24.6
2018-06-20T03:39:27.719Z,24.6
2018-06-20T03:40:18.325Z,24.6
2018-06-20T03:41:08.399Z,24.6
2018-06-20T03:41:58.436Z,24.6
2018-06-20T03:42:48.571Z,24.6
2018-06-20T03:43:38.871Z,24.6
2018-06-20T03:44:27.801Z,24.6
2018-06-20T03:45:18.421Z,24.6
2018-06-20T03:46:08.496Z,24.6
2018-06-20T03:46:58.556Z,24.6
2018-06-20T03:47:48.618Z,24.6
2018-06-20T03:48:38.699Z,24.6
2018-06-20T03:49:29.290Z,24.6
2018-06-20T03:50:19.066Z,24.6
2018-06-20T03:51:08.887Z,24.6
2018-06-20T03:51:59.511Z,24.6
2018-06-20T03:52:49.576Z,24.6
2018-06-20T03:53:39.070Z,24.6
2018-06-20T03:54:29.423Z,24.6
2018-06-20T03:55:19.722Z,24.6
2018-06-20T03:56:09.832Z,24.6
2018-06-20T03:56:59.620Z,24.5
2018-06-20T03:57:49.954Z,24.6
2018-06-20T03:58:39.720Z,24.6
2018-06-20T03:59:29.777Z,24.6
2018-06-20T04:00:19.556Z,24.5
2018-06-20T04:01:09.878Z,24.6
2018-06-20T04:01:59.980Z,24.6
2018-06-20T04:02:50.042Z,24.6
2018-06-20T04:03:40.390Z,24.6
2018-06-20T04:04:30.493Z,24.6
2018-06-20T04:05:20.232Z,24.6
2018-06-20T04:06:10.647Z,24.6
2018-06-20T04:07:00.328Z,24.6
2018-06-20T04:07:50.424Z,24.6
2018-06-20T04:08:39.973Z,24.6
2018-06-20T04:09:30.857Z,24.6
2018-06-20T04:10:20.638Z,24.6
2018-06-20T04:11:10.967Z,24.6
2018-06-20T04:12:00.992Z,24.6
2018-06-20T04:12:52.018Z,24.6
2018-06-20T04:13:41.133Z,24.6
2018-06-20T04:14:30.086Z,24.6
2018-06-20T04:15:20.997Z,24.6
2018-06-20T04:16:10.492Z,24.6
2018-06-20T04:17:01.137Z,24.6
2018-06-20T04:17:50.588Z,24.6
2018-06-20T04:18:41.275Z,24.6
2018-06-20T04:19:31.276Z,24.6
2018-06-20T04:20:21.363Z,24.6
2018-06-20T04:21:11.728Z,24.6
2018-06-20T04:22:01.777Z,24.6
2018-06-20T04:22:51.881Z,24.6
2018-06-20T04:23:41.897Z,24.7
2018-06-20T04:24:31.689Z,24.7
2018-06-20T04:25:21.469Z,24.8
2018-06-20T04:26:11.879Z,24.8
2018-06-20T04:27:02.151Z,24.8
2018-06-20T04:27:52.216Z,24.8
2018-06-20T04:28:41.985Z,24.8
2018-06-20T04:29:32.044Z,24.9
2018-06-20T04:30:22.148Z,24.9
2018-06-20T04:31:12.213Z,24.9
2018-06-20T04:32:02.540Z,24.8
2018-06-20T04:32:52.593Z,24.8
2018-06-20T04:33:42.665Z,24.8
2018-06-20T04:34:32.953Z,24.8
2018-06-20T04:35:21.547Z,24.8
2018-06-20T04:36:12.578Z,24.8
2018-06-20T04:37:02.616Z,24.8
2018-06-20T04:37:52.953Z,24.8
2018-06-20T04:38:42.780Z,24.8
2018-06-20T04:39:33.105Z,24.8
2018-06-20T04:40:23.140Z,24.8
2018-06-20T04:41:13.204Z,24.8
2018-06-20T04:42:02.727Z,24.8
2018-06-20T04:42:53.084Z,24.8
2018-06-20T04:43:43.398Z,24.8
2018-06-20T04:44:33.036Z,24.8
2018-06-20T04:45:23.570Z,24.8
2018-06-20T04:46:13.338Z,24.8
2018-06-20T04:47:02.845Z,24.8
2018-06-20T04:47:53.444Z,24.8
2018-06-20T04:48:43.828Z,24.8
2018-06-20T04:49:33.309Z,24.8
2018-06-20T04:50:23.408Z,24.8
2018-06-20T04:51:13.751Z,24.7
2018-06-20T04:52:03.810Z,24.7
2018-06-20T04:52:53.009Z,24.7
2018-06-20T04:53:43.343Z,24.7
2018-06-20T04:54:34.269Z,24.7
2018-06-20T04:55:24.310Z,24.8
2018-06-20T04:56:14.114Z,24.7
2018-06-20T04:57:04.444Z,24.7
2018-06-20T04:57:53.957Z,24.7
2018-06-20T04:58:43.816Z,24.7
2018-06-20T04:59:34.646Z,24.8
2018-06-20T05:00:24.726Z,24.7
2018-06-20T05:01:14.778Z,24.7
2018-06-20T05:02:04.249Z,24.7
2018-06-20T05:02:54.320Z,24.7
2018-06-20T05:03:44.538Z,24.7
2018-06-20T05:04:34.796Z,24.7
2018-06-20T05:05:24.596Z,24.7
2018-06-20T05:06:14.338Z,24.7
2018-06-20T05:07:04.751Z,24.7
2018-06-20T05:07:55.006Z,24.7
2018-06-20T05:08:45.364Z,24.7
2018-06-20T05:09:35.129Z,24.7
2018-06-20T05:10:25.186Z,24.7
2018-06-20T05:11:15.525Z,24.7
2018-06-20T05:12:05.615Z,24.7
2018-06-20T05:12:55.112Z,24.7
2018-06-20T05:13:45.734Z,24.6
2018-06-20T05:14:35.254Z,24.7
2018-06-20T05:15:25.557Z,24.7
2018-06-20T05:16:15.604Z,24.6
2018-06-20T05:17:05.701Z,24.7
2018-06-20T05:17:56.041Z,24.6
2018-06-20T05:18:46.108Z,24.6
2018-06-20T05:19:36.148Z,24.6
2018-06-20T05:20:25.673Z,24.6
2018-06-20T05:21:16.290Z,24.6
2018-06-20T05:22:05.787Z,24.6
2018-06-20T05:22:55.875Z,24.6
2018-06-20T05:23:46.213Z,24.6
2018-06-20T05:24:36.328Z,24.6
2018-06-20T05:25:26.333Z,24.6
2018-06-20T05:26:16.711Z,24.6
2018-06-20T05:27:06.226Z,24.6
2018-06-20T05:27:56.332Z,24.6
2018-06-20T05:28:46.580Z,24.6
2018-06-20T05:29:36.638Z,24.6
2018-06-20T05:30:26.989Z,24.6
2018-06-20T05:31:16.539Z,24.6
2018-06-20T05:32:07.116Z,24.6
2018-06-20T05:32:57.964Z,24.7
2018-06-20T05:33:47.237Z,24.7
2018-06-20T05:34:37.304Z,24.7
2018-06-20T05:35:27.373Z,24.7
2018-06-20T05:36:17.439Z,24.7
2018-06-20T05:37:07.206Z,24.7
2018-06-20T05:37:57.261Z,24.7
2018-06-20T05:38:47.633Z,24.6
2018-06-20T05:39:37.440Z,24.7
2018-06-20T05:40:27.768Z,24.7
2018-06-20T05:41:17.552Z,24.7
2018-06-20T05:42:07.885Z,24.7
2018-06-20T05:42:57.963Z,24.7
2018-06-20T05:43:47.714Z,24.7
2018-06-20T05:44:38.089Z,24.7
2018-06-20T05:45:27.593Z,24.7
2018-06-20T05:46:17.362Z,24.7
2018-06-20T05:47:07.804Z,24.7
2018-06-20T05:47:57.779Z,24.6
2018-06-20T05:48:48.114Z,24.7
2018-06-20T05:49:37.896Z,24.6
2018-06-20T05:50:28.245Z,24.6
2018-06-20T05:51:18.611Z,24.6
2018-06-20T05:52:08.674Z,24.6
2018-06-20T05:52:58.415Z,24.6
2018-06-20T05:53:48.773Z,24.6
2018-06-20T05:54:38.828Z,24.6
2018-06-20T05:55:28.897Z,24.6
2018-06-20T05:56:18.973Z,24.6
2018-06-20T05:57:08.783Z,24.6
2018-06-20T05:57:59.105Z,24.6
2018-06-20T05:58:48.983Z,24.6
2018-06-20T05:59:38.654Z,24.6
2018-06-20T06:00:29.268Z,24.6
2018-06-20T06:01:19.080Z,24.6
2018-06-20T06:02:08.863Z,24.6
2018-06-20T06:02:59.529Z,24.6
2018-06-20T06:03:49.255Z,24.6
2018-06-20T06:04:39.614Z,24.6
2018-06-20T06:05:29.718Z,24.6
2018-06-20T06:06:19.468Z,24.6
2018-06-20T06:07:09.815Z,24.6
2018-06-20T06:07:59.301Z,24.6
2018-06-20T06:08:49.371Z,24.6
2018-06-20T06:09:39.161Z,24.6
2018-06-20T06:11:19.141Z,24.6
2018-06-20T06:12:09.429Z,24.6
2018-06-20T06:12:59.519Z,24.6
2018-06-20T06:13:49.516Z,24.6
2018-06-20T06:14:39.653Z,24.6
2018-06-20T06:15:29.109Z,24.6
2018-06-20T06:16:19.461Z,24.6
2018-06-20T06:17:10.095Z,24.6
2018-06-20T06:17:59.584Z,24.6
2018-06-20T06:18:49.931Z,24.6
2018-06-20T06:19:39.981Z,24.6
2018-06-20T06:20:30.030Z,24.6
2018-06-20T06:21:20.099Z,24.6
2018-06-20T06:22:09.866Z,24.6
2018-06-20T06:22:59.943Z,24.6
2018-06-20T06:23:50.044Z,24.6
2018-06-20T06:24:40.375Z,24.6
2018-06-20T06:25:30.491Z,24.6
2018-06-20T06:26:20.501Z,24.6
2018-06-20T06:27:10.269Z,24.6
2018-06-20T06:28:00.338Z,24.6
2018-06-20T06:28:50.399Z,24.6
2018-06-20T06:29:40.737Z,24.6
2018-06-20T06:30:30.728Z,24.6
2018-06-20T06:31:20.591Z,24.6
2018-06-20T06:32:10.649Z,24.6
2018-06-20T06:33:00.756Z,24.6
2018-06-20T06:33:50.782Z,24.6
2018-06-20T06:34:41.136Z,24.6
2018-06-20T06:35:30.915Z,24.6
2018-06-20T06:36:20.770Z,24.6
2018-06-20T06:37:11.303Z,24.6
2018-06-20T06:38:01.146Z,24.6
2018-06-20T06:38:51.167Z,24.6
2018-06-20T06:39:41.588Z,24.6
2018-06-20T06:40:31.586Z,24.6
2018-06-20T06:41:21.372Z,24.6
2018-06-20T06:42:11.480Z,24.6
2018-06-20T06:43:01.755Z,24.6
2018-06-20T06:43:51.294Z,24.6
2018-06-20T06:44:41.915Z,24.6
2018-06-20T06:45:31.934Z,24.6
2018-06-20T06:46:22.077Z,24.5
2018-06-20T06:47:11.814Z,24.6
2018-06-20T06:48:01.917Z,24.6
2018-06-20T06:48:52.239Z,24.6
2018-06-20T06:49:42.844Z,24.6
2018-06-20T06:50:32.045Z,24.6
2018-06-20T06:51:22.122Z,24.6
2018-06-20T06:52:12.479Z,24.6
2018-06-20T06:53:02.513Z,24.6
2018-06-20T06:53:52.597Z,24.5
2018-06-20T06:54:42.114Z,24.5
2018-06-20T06:55:32.709Z,24.5
2018-06-20T06:56:22.521Z,31.9
2018-06-20T06:57:12.839Z,47.4
2018-06-20T06:58:02.988Z,51.9
2018-06-20T06:58:52.991Z,50.8
2018-06-20T06:59:42.554Z,47.1
2018-06-20T07:00:33.124Z,45.9
2018-06-20T07:01:23.185Z,45.2
2018-06-20T07:02:13.244Z,44.7
2018-06-20T07:03:03.074Z,44.2
2018-06-20T07:03:53.417Z,43.9
2018-06-20T07:04:43.167Z,43.8
2018-06-20T07:05:33.272Z,43.6
2018-06-20T07:06:23.278Z,43.6
2018-06-20T07:07:13.633Z,43.4
2018-06-20T07:08:03.402Z,43.3
2018-06-20T07:08:52.914Z,43.1
2018-06-20T07:09:43.544Z,42.8
2018-06-20T07:10:33.671Z,42.6
2018-06-20T07:11:23.694Z,40.2
2018-06-20T07:12:13.750Z,43.9
2018-06-20T07:13:03.784Z,52.3
2018-06-20T07:13:53.590Z,54.1
2018-06-20T07:14:43.944Z,53.9
2018-06-20T07:15:35.123Z,52.3
2018-06-20T07:16:24.374Z,49.6
2018-06-20T07:17:13.859Z,47.6
2018-06-20T07:18:04.191Z,47.5
2018-06-20T07:18:54.518Z,49.1
2018-06-20T07:19:44.372Z,50.7
2018-06-20T07:20:34.202Z,51.6
2018-06-20T07:21:24.723Z,51.8
2018-06-20T07:22:14.807Z,51.4
2018-06-20T07:23:04.587Z,50.8
2018-06-20T07:23:54.672Z,50.4
2018-06-20T07:24:44.696Z,50.6
2018-06-20T07:25:35.114Z,51.1
2018-06-20T07:26:24.529Z,51.6
2018-06-20T07:27:15.215Z,52
2018-06-20T07:28:04.943Z,52.2
2018-06-20T07:28:55.058Z,52.2
2018-06-20T07:29:45.152Z,52.1
2018-06-20T07:30:34.862Z,52.2
2018-06-20T07:32:15.568Z,52.6
2018-06-20T07:33:05.662Z,52.9
2018-06-20T07:33:55.426Z,53.1
2018-06-20T07:34:45.232Z,53.3
2018-06-20T07:35:36.885Z,53.4
2018-06-20T07:36:25.745Z,53.5
2018-06-20T07:37:15.465Z,53.6
2018-06-20T07:38:06.015Z,53.8
2018-06-20T07:38:56.088Z,53.9
2018-06-20T07:39:45.669Z,54.1
2018-06-20T07:40:35.691Z,54.3
2018-06-20T07:41:25.976Z,54.4
2018-06-20T07:42:16.316Z,54.6
2018-06-20T07:43:06.395Z,54.7
2018-06-20T07:43:56.236Z,54.8
2018-06-20T07:44:46.248Z,54.9
2018-06-20T07:45:36.301Z,55.1
2018-06-20T07:46:26.627Z,55.2
2018-06-20T07:47:16.721Z,55.4
2018-06-20T07:48:06.238Z,55.4
2018-06-20T07:48:56.554Z,55.6
2018-06-20T07:49:46.876Z,55.8
2018-06-20T07:50:36.536Z,56
2018-06-20T07:51:26.166Z,56.1
2018-06-20T07:52:16.628Z,56.3
2018-06-20T07:53:06.617Z,56.4
2018-06-20T07:53:57.274Z,56.6
2018-06-20T07:54:47.005Z,56.7
2018-06-20T07:55:37.383Z,56.9
2018-06-20T07:56:27.138Z,57
2018-06-20T07:57:17.224Z,57.2
2018-06-20T07:58:07.561Z,57.3
2018-06-20T07:58:56.752Z,57.5
2018-06-20T07:59:47.651Z,57.6
2018-06-20T08:00:37.725Z,57.7
2018-06-20T08:01:27.276Z,57.8
2018-06-20T08:02:17.881Z,57.9
2018-06-20T08:03:08.009Z,58.1
2018-06-20T08:03:57.981Z,58.1
2018-06-20T08:04:48.122Z,58.3
2018-06-20T08:05:38.125Z,58.4
2018-06-20T08:06:28.735Z,58.5
2018-06-20T08:07:17.694Z,58.6
2018-06-20T08:08:08.327Z,58.8
2018-06-20T08:08:58.381Z,58.8
2018-06-20T08:09:48.483Z,58.9
2018-06-20T08:10:37.966Z,59.1
2018-06-20T08:11:27.830Z,59.2
2018-06-20T08:12:18.394Z,59.3
2018-06-20T08:13:08.420Z,59.4
2018-06-20T08:13:58.507Z,59.6
2018-06-20T08:14:47.880Z,59.7
2018-06-20T08:15:38.620Z,59.8
2018-06-20T08:16:28.961Z,59.9
2018-06-20T08:17:18.827Z,60.1
2018-06-20T08:18:08.241Z,60.2
2018-06-20T08:18:58.877Z,60.3
2018-06-20T08:19:48.957Z,60.4
2018-06-20T08:20:38.778Z,60.6
2018-06-20T08:21:29.100Z,60.6
2018-06-20T08:22:19.455Z,60.7
2018-06-20T08:23:09.467Z,60.8
2018-06-20T08:23:59.560Z,60.9
2018-06-20T08:24:49.048Z,61.1
2018-06-20T08:25:39.891Z,61.1
2018-06-20T08:26:29.713Z,61.3
2018-06-20T08:27:19.508Z,61.4
2018-06-20T08:28:09.030Z,61.4
2018-06-20T08:28:59.937Z,61.6
2018-06-20T08:29:50.005Z,61.6
2018-06-20T08:30:39.483Z,61.8
2018-06-20T08:31:29.571Z,61.8
2018-06-20T08:32:20.251Z,61.8
2018-06-20T08:33:09.958Z,61.9
2018-06-20T08:34:00.363Z,62
2018-06-20T08:34:50.138Z,62.1
2018-06-20T08:35:40.440Z,62.2
2018-06-20T08:36:30.255Z,62.2
2018-06-20T08:37:20.008Z,62.3
2018-06-20T08:38:10.361Z,62.4
2018-06-20T08:39:00.691Z,62.6
2018-06-20T08:39:50.767Z,62.7
2018-06-20T08:40:40.552Z,62.8
2018-06-20T08:41:30.904Z,62.8
2018-06-20T08:42:21.286Z,62.8
2018-06-20T08:43:11.041Z,62.9
2018-06-20T08:44:00.521Z,62.9
2018-06-20T08:44:50.584Z,63
2018-06-20T08:45:41.199Z,63.1
2018-06-20T08:46:31.010Z,63.2
2018-06-20T08:47:21.348Z,63.3
2018-06-20T08:48:11.162Z,63.3
2018-06-20T08:49:01.207Z,63.4
2018-06-20T08:49:51.562Z,63.6
2018-06-20T08:50:41.597Z,63.6
2018-06-20T08:51:31.685Z,63.8
2018-06-20T08:52:21.755Z,63.8
2018-06-20T08:53:11.752Z,63.9
2018-06-20T08:54:01.573Z,63.9
2018-06-20T08:54:51.925Z,64
2018-06-20T08:55:42.010Z,64.1
2018-06-20T08:56:31.805Z,64.2
2018-06-20T08:57:22.159Z,64.3
2018-06-20T08:58:11.641Z,64.3
2018-06-20T08:59:01.685Z,64.4
2018-06-20T08:59:52.054Z,64.5
2018-06-20T09:00:42.361Z,64.6
2018-06-20T09:01:32.486Z,64.7
2018-06-20T09:02:22.527Z,64.8
2018-06-20T09:03:12.271Z,64.8
2018-06-20T09:04:02.619Z,64.9
2018-06-20T09:04:52.427Z,64.9
2018-06-20T09:05:42.485Z,65
2018-06-20T09:06:32.836Z,65.1
2018-06-20T09:07:22.620Z,65.1
2018-06-20T09:08:12.670Z,65.2
2018-06-20T09:09:03.079Z,65.3
2018-06-20T09:09:53.087Z,65.3
2018-06-20T09:10:42.856Z,65.4
2018-06-20T09:11:33.234Z,65.5
2018-06-20T09:12:22.714Z,65.6
2018-06-20T09:13:13.357Z,65.7
2018-06-20T09:14:03.144Z,65.2
2018-06-20T09:14:53.461Z,63.8
2018-06-20T09:15:43.271Z,62.4
2018-06-20T09:16:33.345Z,62.1
2018-06-20T09:17:23.423Z,61.8
2018-06-20T09:18:13.253Z,62.4
2018-06-20T09:19:03.555Z,63.4
2018-06-20T09:19:52.880Z,64.3
2018-06-20T09:20:43.936Z,64.6
2018-06-20T09:21:33.448Z,64.5
2018-06-20T09:22:23.528Z,64.3
2018-06-20T09:23:14.147Z,64.1
2018-06-20T09:24:03.432Z,64.3
2018-06-20T09:24:54.271Z,64.6
2018-06-20T09:25:44.018Z,64.8
2018-06-20T09:26:34.158Z,64.6
2018-06-20T09:27:23.692Z,64.4
2018-06-20T09:28:14.287Z,63.8
2018-06-20T09:29:04.331Z,63.6
2018-06-20T09:29:54.427Z,63.6
2018-06-20T09:30:44.433Z,64.1
2018-06-20T09:31:34.490Z,64.8
2018-06-20T09:32:24.352Z,65.4
2018-06-20T09:33:14.624Z,65.8
2018-06-20T09:34:04.693Z,65.9
2018-06-20T09:34:54.477Z,66
2018-06-20T09:35:44.843Z,66.1
2018-06-20T09:36:35.170Z,66.3
2018-06-20T09:37:25.259Z,66.5
2018-06-20T09:38:15.296Z,66.8
2018-06-20T09:39:05.077Z,67.1
2018-06-20T09:39:55.144Z,67.3
2018-06-20T09:40:44.951Z,67.3
2018-06-20T09:41:35.638Z,67.5
2018-06-20T09:42:25.637Z,67.6
2018-06-20T09:43:15.389Z,67.8
2018-06-20T09:44:05.754Z,67.9
2018-06-20T09:44:55.831Z,68
2018-06-20T09:45:45.607Z,68.3
2018-06-20T09:46:35.404Z,68.4
2018-06-20T09:47:25.808Z,68.5
2018-06-20T09:48:16.073Z,68.6
2018-06-20T09:49:06.136Z,68.6
2018-06-20T09:49:56.210Z,68.8
2018-06-20T09:50:45.995Z,68.9
2018-06-20T09:51:36.078Z,68.9
2018-06-20T09:52:26.389Z,67.8
2018-06-20T09:53:16.442Z,65.9
2018-06-20T09:54:06.511Z,63.9
2018-06-20T09:54:56.333Z,62.6
2018-06-20T09:55:46.649Z,61.8
2018-06-20T09:56:36.836Z,61.4
2018-06-20T09:57:26.523Z,61.1
2018-06-20T09:58:16.337Z,60.6
2018-06-20T09:59:06.462Z,60.3
2018-06-20T09:59:57.027Z,60.3
2018-06-20T10:00:46.802Z,61.1
2018-06-20T10:01:37.798Z,62
2018-06-20T10:02:27.220Z,62.3
2018-06-20T10:03:16.995Z,62.3
2018-06-20T10:04:06.778Z,62.6
2018-06-20T10:04:57.103Z,62.8
2018-06-20T10:05:47.469Z,61.9
2018-06-20T10:06:37.244Z,61.1
2018-06-20T10:07:27.315Z,61.7
2018-06-20T10:08:17.420Z,62.8
2018-06-20T10:09:07.720Z,63.9
2018-06-20T10:09:57.495Z,64.4
2018-06-20T10:10:46.742Z,63.6
2018-06-20T10:11:37.652Z,62.6
2018-06-20T10:12:27.667Z,62.7
2018-06-20T10:13:18.074Z,63.4
2018-06-20T10:14:08.105Z,64.3
2018-06-20T10:14:57.588Z,65.1
2018-06-20T10:15:47.694Z,65.8
2018-06-20T10:16:38.360Z,65.9
2018-06-20T10:17:28.385Z,65.8
2018-06-20T10:18:17.846Z,65.7
2018-06-20T10:19:08.491Z,65.8
2018-06-20T10:19:57.992Z,66
2018-06-20T10:20:48.337Z,65.7
2018-06-20T10:21:38.412Z,64.9
2018-06-20T10:22:28.452Z,64.9
2018-06-20T10:23:18.241Z,65.5
2018-06-20T10:24:08.578Z,65.9
2018-06-20T10:24:58.639Z,66.5
2018-06-20T10:25:48.450Z,66.8
2018-06-20T10:26:38.226Z,66.9
2018-06-20T10:27:28.591Z,66.8
2018-06-20T10:28:18.918Z,66.8
2018-06-20T10:29:09.343Z,66.9
2018-06-20T10:29:59.093Z,67.1
2018-06-20T10:30:48.859Z,67.4
2018-06-20T10:31:39.460Z,67.7
2018-06-20T10:32:29.529Z,67.9
2018-06-20T10:33:19.351Z,68
2018-06-20T10:34:09.991Z,68
2018-06-20T10:34:59.459Z,67.9
2018-06-20T10:35:49.777Z,67.5
2018-06-20T10:36:39.563Z,67
2018-06-20T10:37:29.646Z,66.5
2018-06-20T10:38:19.984Z,66.8
2018-06-20T10:39:09.749Z,67.3
2018-06-20T10:40:00.156Z,67.8
2018-06-20T10:40:49.584Z,68.1
2018-06-20T10:41:40.247Z,68.1
2018-06-20T10:42:30.026Z,68
2018-06-20T10:43:20.383Z,67.8
2018-06-20T10:44:09.869Z,67.6
2018-06-20T10:45:00.525Z,67.6
2018-06-20T10:45:49.993Z,67.8
2018-06-20T10:46:40.349Z,67.9
2018-06-20T10:47:30.696Z,68.1
2018-06-20T10:48:20.196Z,68.1
2018-06-20T10:49:10.282Z,68.1
2018-06-20T10:50:00.630Z,68.1
2018-06-20T10:50:50.372Z,68.1
2018-06-20T10:51:41.032Z,68.1
2018-06-20T10:52:30.483Z,68.3
2018-06-20T10:53:20.584Z,67.9
2018-06-20T10:54:10.901Z,67.1
2018-06-20T10:55:00.952Z,66.3
2018-06-20T10:55:51.343Z,66.1
2018-06-20T10:56:41.381Z,66.5
2018-06-20T10:57:31.483Z,66.5
2018-06-20T10:58:21.618Z,65.9
2018-06-20T10:59:11.050Z,64.6
2018-06-20T11:00:01.348Z,63.2
2018-06-20T11:00:51.707Z,62.4
2018-06-20T11:01:41.228Z,62.9
2018-06-20T11:02:31.561Z,64.1
2018-06-20T11:03:21.693Z,65.3
2018-06-20T11:04:11.973Z,66
2018-06-20T11:05:01.752Z,65.6
2018-06-20T11:05:51.830Z,65.4
2018-06-20T11:06:42.205Z,65.3
2018-06-20T11:07:31.646Z,65.3
2018-06-20T11:08:22.330Z,65.8
2018-06-20T11:09:12.371Z,66.3
2018-06-20T11:10:02.106Z,66.8